sensor_id;sensor_type;location;lat;lon;timestamp;pressure;altitude;pressure_sealevel;temperature
37452;BMP280;23314;51.114;6.900;2024-01-07T00:02:07;101240.41;;;4.28
37452;BMP280;23314;51.114;6.900;2024-01-07T00:04:33;101241.53;;;4.27
37452;BMP280;23314;51.114;6.900;2024-01-07T00:06:59;101240.84;;;4.30
37452;BMP280;23314;51.114;6.900;2024-01-07T00:09:25;101239.97;;;4.26
37452;BMP280;23314;51.114;6.900;2024-01-07T00:11:50;101238.09;;;4.26
37452;BMP280;23314;51.114;6.900;2024-01-07T00:14:16;101237.00;;;4.27
37452;BMP280;23314;51.114;6.900;2024-01-07T00:16:42;101240.72;;;4.26
37452;BMP280;23314;51.114;6.900;2024-01-07T00:19:07;101238.88;;;4.27
37452;BMP280;23314;51.114;6.900;2024-01-07T00:21:32;101241.84;;;4.25
37452;BMP280;23314;51.114;6.900;2024-01-07T00:23:58;101242.94;;;4.24
37452;BMP280;23314;51.114;6.900;2024-01-07T00:26:23;101243.72;;;4.25
37452;BMP280;23314;51.114;6.900;2024-01-07T00:28:48;101247.44;;;4.20
37452;BMP280;23314;51.114;6.900;2024-01-07T00:31:14;101237.19;;;4.19
37452;BMP280;23314;51.114;6.900;2024-01-07T00:33:39;101241.00;;;4.21
37452;BMP280;23314;51.114;6.900;2024-01-07T00:36:04;101246.38;;;4.25
37452;BMP280;23314;51.114;6.900;2024-01-07T00:38:30;101248.22;;;4.24
37452;BMP280;23314;51.114;6.900;2024-01-07T00:40:55;101263.41;;;4.27
37452;BMP280;23314;51.114;6.900;2024-01-07T00:43:20;101258.78;;;4.24
37452;BMP280;23314;51.114;6.900;2024-01-07T00:45:46;101255.81;;;4.26
37452;BMP280;23314;51.114;6.900;2024-01-07T00:48:12;101247.47;;;4.24
37452;BMP280;23314;51.114;6.900;2024-01-07T00:50:37;101254.28;;;4.25
37452;BMP280;23314;51.114;6.900;2024-01-07T00:53:02;101253.94;;;4.26
37452;BMP280;23314;51.114;6.900;2024-01-07T00:55:28;101261.97;;;4.30
37452;BMP280;23314;51.114;6.900;2024-01-07T00:57:53;101260.88;;;4.31
37452;BMP280;23314;51.114;6.900;2024-01-07T01:00:19;101260.50;;;4.33
37452;BMP280;23314;51.114;6.900;2024-01-07T01:02:45;101261.97;;;4.30
37452;BMP280;23314;51.114;6.900;2024-01-07T01:05:10;101263.91;;;4.33
37452;BMP280;23314;51.114;6.900;2024-01-07T01:07:35;101264.69;;;4.34
37452;BMP280;23314;51.114;6.900;2024-01-07T01:10:01;101260.94;;;4.35
37452;BMP280;23314;51.114;6.900;2024-01-07T01:12:26;101271.06;;;4.33
37452;BMP280;23314;51.114;6.900;2024-01-07T01:14:51;101276.00;;;4.34
37452;BMP280;23314;51.114;6.900;2024-01-07T01:17:17;101272.19;;;4.32
37452;BMP280;23314;51.114;6.900;2024-01-07T01:19:42;101275.25;;;4.34
37452;BMP280;23314;51.114;6.900;2024-01-07T01:22:07;101276.72;;;4.31
37452;BMP280;23314;51.114;6.900;2024-01-07T01:24:33;101288.81;;;4.32
37452;BMP280;23314;51.114;6.900;2024-01-07T01:26:58;101280.88;;;4.32
37452;BMP280;23314;51.114;6.900;2024-01-07T01:29:23;101287.34;;;4.35
37452;BMP280;23314;51.114;6.900;2024-01-07T01:31:49;101283.25;;;4.37
37452;BMP280;23314;51.114;6.900;2024-01-07T01:34:14;101293.41;;;4.35
37452;BMP280;23314;51.114;6.900;2024-01-07T01:36:39;101295.59;;;4.33
37452;BMP280;23314;51.114;6.900;2024-01-07T01:39:05;101295.97;;;4.32
37452;BMP280;23314;51.114;6.900;2024-01-07T01:41:30;101295.97;;;4.32
37452;BMP280;23314;51.114;6.900;2024-01-07T01:43:59;101301.25;;;4.32
37452;BMP280;23314;51.114;6.900;2024-01-07T01:46:25;101298.50;;;4.28
37452;BMP280;23314;51.114;6.900;2024-01-07T01:48:50;101296.31;;;4.30
37452;BMP280;23314;51.114;6.900;2024-01-07T01:51:16;101297.06;;;4.31
37452;BMP280;23314;51.114;6.900;2024-01-07T01:53:42;101294.09;;;4.32
37452;BMP280;23314;51.114;6.900;2024-01-07T01:56:07;101291.78;;;4.31
37452;BMP280;23314;51.114;6.900;2024-01-07T01:58:33;101297.06;;;4.31
37452;BMP280;23314;51.114;6.900;2024-01-07T02:00:58;101299.63;;;4.27
37452;BMP280;23314;51.114;6.900;2024-01-07T02:03:24;101299.63;;;4.27
37452;BMP280;23314;51.114;6.900;2024-01-07T02:05:50;101300.38;;;4.27
37452;BMP280;23314;51.114;6.900;2024-01-07T02:08:17;101304.91;;;4.27
37452;BMP280;23314;51.114;6.900;2024-01-07T02:10:43;101302.25;;;4.27
37452;BMP280;23314;51.114;6.900;2024-01-07T02:13:10;101304.47;;;4.25
37452;BMP280;23314;51.114;6.900;2024-01-07T02:15:35;101295.00;;;4.24
37452;BMP280;23314;51.114;6.900;2024-01-07T02:18:01;101304.47;;;4.25
37452;BMP280;23314;51.114;6.900;2024-01-07T02:20:26;101307.47;;;4.23
37452;BMP280;23314;51.114;6.900;2024-01-07T02:22:52;101309.75;;;4.25
37452;BMP280;23314;51.114;6.900;2024-01-07T02:25:17;101307.53;;;4.27
37452;BMP280;23314;51.114;6.900;2024-01-07T02:27:42;101314.69;;;4.26
37452;BMP280;23314;51.114;6.900;2024-01-07T02:30:08;101313.94;;;4.26
37452;BMP280;23314;51.114;6.900;2024-01-07T02:32:33;101315.78;;;4.25
37452;BMP280;23314;51.114;6.900;2024-01-07T02:35:01;101315.78;;;4.25
37452;BMP280;23314;51.114;6.900;2024-01-07T02:37:27;101315.78;;;4.25
37452;BMP280;23314;51.114;6.900;2024-01-07T02:39:52;101323.38;;;4.27
37452;BMP280;23314;51.114;6.900;2024-01-07T02:42:17;101324.16;;;4.27
37452;BMP280;23314;51.114;6.900;2024-01-07T02:44:43;101324.94;;;4.28
37452;BMP280;23314;51.114;6.900;2024-01-07T02:47:08;101333.59;;;4.28
37452;BMP280;23314;51.114;6.900;2024-01-07T02:49:34;101328.00;;;4.30
37452;BMP280;23314;51.114;6.900;2024-01-07T02:51:59;101325.69;;;4.28
37452;BMP280;23314;51.114;6.900;2024-01-07T02:54:24;101329.00;;;4.25
37452;BMP280;23314;51.114;6.900;2024-01-07T02:56:50;101331.94;;;4.20
37452;BMP280;23314;51.114;6.900;2024-01-07T02:59:15;101334.13;;;4.18
37452;BMP280;23314;51.114;6.900;2024-01-07T03:01:40;101340.75;;;4.12
37452;BMP280;23314;51.114;6.900;2024-01-07T03:04:09;101344.16;;;4.12
37452;BMP280;23314;51.114;6.900;2024-01-07T03:06:35;101349.78;;;4.11
37452;BMP280;23314;51.114;6.900;2024-01-07T03:09:00;101342.59;;;4.11
37452;BMP280;23314;51.114;6.900;2024-01-07T03:11:25;101338.09;;;4.12
37452;BMP280;23314;51.114;6.900;2024-01-07T03:13:51;101348.66;;;4.12
37452;BMP280;23314;51.114;6.900;2024-01-07T03:16:23;101347.81;;;4.08
37452;BMP280;23314;51.114;6.900;2024-01-07T03:18:49;101362.53;;;4.09
37452;BMP280;23314;51.114;6.900;2024-01-07T03:21:18;101355.38;;;4.09
37452;BMP280;23314;51.114;6.900;2024-01-07T03:23:45;101360.66;;;4.09
37452;BMP280;23314;51.114;6.900;2024-01-07T03:26:10;101354.19;;;4.07
37452;BMP280;23314;51.114;6.900;2024-01-07T03:28:36;101354.97;;;4.07
37452;BMP280;23314;51.114;6.900;2024-01-07T03:31:15;101366.88;;;4.01
37452;BMP280;23314;51.114;6.900;2024-01-07T03:33:42;101360.13;;;4.04
37452;BMP280;23314;51.114;6.900;2024-01-07T03:36:12;101354.78;;;4.00
37452;BMP280;23314;51.114;6.900;2024-01-07T03:38:39;101355.88;;;3.99
37452;BMP280;23314;51.114;6.900;2024-01-07T03:41:05;101355.53;;;4.01
37452;BMP280;23314;51.114;6.900;2024-01-07T03:43:30;101361.59;;;4.01
37452;BMP280;23314;51.114;6.900;2024-01-07T03:45:56;101357.88;;;4.02
37452;BMP280;23314;51.114;6.900;2024-01-07T03:48:21;101357.47;;;4.04
37452;BMP280;23314;51.114;6.900;2024-01-07T03:50:46;101354.34;;;3.98
37452;BMP280;23314;51.114;6.900;2024-01-07T03:53:13;101368.22;;;3.95
37452;BMP280;23314;51.114;6.900;2024-01-07T03:55:38;101351.94;;;3.93
37452;BMP280;23314;51.114;6.900;2024-01-07T03:58:05;101365.13;;;3.93
37452;BMP280;23314;51.114;6.900;2024-01-07T04:00:31;101366.25;;;3.92
37452;BMP280;23314;51.114;6.900;2024-01-07T04:02:56;101356.47;;;3.92
37452;BMP280;23314;51.114;6.900;2024-01-07T04:05:22;101369.97;;;3.91
37452;BMP280;23314;51.114;6.900;2024-01-07T04:07:47;101365.91;;;3.93
37452;BMP280;23314;51.114;6.900;2024-01-07T04:10:12;101371.88;;;3.90
37452;BMP280;23314;51.114;6.900;2024-01-07T04:12:38;101365.38;;;3.88
37452;BMP280;23314;51.114;6.900;2024-01-07T04:15:04;101369.44;;;3.85
37452;BMP280;23314;51.114;6.900;2024-01-07T04:17:29;101376.28;;;3.86
37452;BMP280;23314;51.114;6.900;2024-01-07T04:19:55;101378.56;;;3.88
37452;BMP280;23314;51.114;6.900;2024-01-07T04:22:20;101383.41;;;3.86
37452;BMP280;23314;51.114;6.900;2024-01-07T04:24:46;101380.09;;;3.89
37452;BMP280;23314;51.114;6.900;2024-01-07T04:27:11;101384.63;;;3.88
37452;BMP280;23314;51.114;6.900;2024-01-07T04:29:36;101392.97;;;3.90
37452;BMP280;23314;51.114;6.900;2024-01-07T04:32:02;101392.97;;;3.90
37452;BMP280;23314;51.114;6.900;2024-01-07T04:34:27;101399.69;;;3.88
37452;BMP280;23314;51.114;6.900;2024-01-07T04:36:53;101397.38;;;3.86
37452;BMP280;23314;51.114;6.900;2024-01-07T04:39:18;101398.81;;;3.84
37452;BMP280;23314;51.114;6.900;2024-01-07T04:41:44;101400.94;;;3.78
37452;BMP280;23314;51.114;6.900;2024-01-07T04:44:09;101401.19;;;3.73
37452;BMP280;23314;51.114;6.900;2024-01-07T04:46:38;101404.13;;;3.71
37452;BMP280;23314;51.114;6.900;2024-01-07T04:49:03;101407.00;;;3.66
37452;BMP280;23314;51.114;6.900;2024-01-07T04:51:28;101413.72;;;3.63
37452;BMP280;23314;51.114;6.900;2024-01-07T04:53:54;101400.41;;;3.60
37452;BMP280;23314;51.114;6.900;2024-01-07T04:56:20;101411.28;;;3.58
37452;BMP280;23314;51.114;6.900;2024-01-07T04:58:45;101411.63;;;3.57
37452;BMP280;23314;51.114;6.900;2024-01-07T05:01:10;101419.19;;;3.58
37452;BMP280;23314;51.114;6.900;2024-01-07T05:03:36;101421.09;;;3.58
37452;BMP280;23314;51.114;6.900;2024-01-07T05:06:03;101417.22;;;3.55
37452;BMP280;23314;51.114;6.900;2024-01-07T05:08:28;101442.09;;;3.54
37452;BMP280;23314;51.114;6.900;2024-01-07T05:10:54;101420.22;;;3.54
37452;BMP280;23314;51.114;6.900;2024-01-07T05:13:19;101434.72;;;3.47
37452;BMP280;23314;51.114;6.900;2024-01-07T05:15:44;101441.44;;;3.45
37452;BMP280;23314;51.114;6.900;2024-01-07T05:18:12;101430.31;;;3.39
37452;BMP280;23314;51.114;6.900;2024-01-07T05:20:37;101435.94;;;3.38
37452;BMP280;23314;51.114;6.900;2024-01-07T05:23:03;101437.69;;;3.33
37452;BMP280;23314;51.114;6.900;2024-01-07T05:25:28;101443.59;;;3.30
37452;BMP280;23314;51.114;6.900;2024-01-07T05:27:54;101449.31;;;3.32
37452;BMP280;23314;51.114;6.900;2024-01-07T05:30:19;101451.09;;;3.28
37452;BMP280;23314;51.114;6.900;2024-01-07T05:32:44;101450.34;;;3.28
37452;BMP280;23314;51.114;6.900;2024-01-07T05:35:10;101459.81;;;3.29
37452;BMP280;23314;51.114;6.900;2024-01-07T05:37:35;101457.03;;;3.25
37452;BMP280;23314;51.114;6.900;2024-01-07T05:40:01;101459.25;;;3.23
37452;BMP280;23314;51.114;6.900;2024-01-07T05:42:26;101461.22;;;3.26
37452;BMP280;23314;51.114;6.900;2024-01-07T05:44:51;101457.81;;;3.26
37452;BMP280;23314;51.114;6.900;2024-01-07T05:47:17;101468.69;;;3.24
37452;BMP280;23314;51.114;6.900;2024-01-07T05:49:43;101472.75;;;3.22
37452;BMP280;23314;51.114;6.900;2024-01-07T05:52:08;101463.94;;;3.17
37452;BMP280;23314;51.114;6.900;2024-01-07T05:54:34;101467.66;;;3.16
37452;BMP280;23314;51.114;6.900;2024-01-07T05:56:59;101481.50;;;3.13
37452;BMP280;23314;51.114;6.900;2024-01-07T05:59:24;101477.34;;;3.12
37452;BMP280;23314;51.114;6.900;2024-01-07T06:01:50;101480.41;;;3.14
37452;BMP280;23314;51.114;6.900;2024-01-07T06:04:15;101479.75;;;3.17
37452;BMP280;23314;51.114;6.900;2024-01-07T06:06:40;101479.09;;;3.21
37452;BMP280;23314;51.114;6.900;2024-01-07T06:09:06;101491.72;;;3.15
37452;BMP280;23314;51.114;6.900;2024-01-07T06:11:31;101486.47;;;3.15
37452;BMP280;23314;51.114;6.900;2024-01-07T06:13:57;101480.41;;;3.14
37452;BMP280;23314;51.114;6.900;2024-01-07T06:16:22;101497.66;;;3.12
37452;BMP280;23314;51.114;6.900;2024-01-07T06:18:47;101499.53;;;3.11
37452;BMP280;23314;51.114;6.900;2024-01-07T06:21:13;101502.59;;;3.13
37452;BMP280;23314;51.114;6.900;2024-01-07T06:23:38;101509.41;;;3.14
37452;BMP280;23314;51.114;6.900;2024-01-07T06:26:04;101511.72;;;3.16
37452;BMP280;23314;51.114;6.900;2024-01-07T06:28:29;101515.66;;;3.10
37452;BMP280;23314;51.114;6.900;2024-01-07T06:30:54;101522.16;;;3.12
37452;BMP280;23314;51.114;6.900;2024-01-07T06:33:20;101528.66;;;3.15
37452;BMP280;23314;51.114;6.900;2024-01-07T06:35:46;101526.31;;;3.13
37452;BMP280;23314;51.114;6.900;2024-01-07T06:38:11;101523.25;;;3.11
37452;BMP280;23314;51.114;6.900;2024-01-07T06:40:37;101528.38;;;3.08
37452;BMP280;23314;51.114;6.900;2024-01-07T06:43:02;101538.94;;;3.08
37452;BMP280;23314;51.114;6.900;2024-01-07T06:45:27;101543.13;;;3.09
37452;BMP280;23314;51.114;6.900;2024-01-07T06:47:53;101549.94;;;3.10
37452;BMP280;23314;51.114;6.900;2024-01-07T06:50:19;101543.13;;;3.09
37452;BMP280;23314;51.114;6.900;2024-01-07T06:52:45;101546.19;;;3.11
37452;BMP280;23314;51.114;6.900;2024-01-07T06:55:11;101553.34;;;3.10
37452;BMP280;23314;51.114;6.900;2024-01-07T06:57:36;101564.34;;;3.12
37452;BMP280;23314;51.114;6.900;2024-01-07T07:00:02;101555.53;;;3.08
37452;BMP280;23314;51.114;6.900;2024-01-07T07:02:28;101567.63;;;3.09
37452;BMP280;23314;51.114;6.900;2024-01-07T07:04:54;101557.94;;;3.13
37452;BMP280;23314;51.114;6.900;2024-01-07T07:07:19;101565.09;;;3.13
37452;BMP280;23314;51.114;6.900;2024-01-07T07:09:44;101562.91;;;3.15
37452;BMP280;23314;51.114;6.900;2024-01-07T07:12:12;101574.22;;;3.15
37452;BMP280;23314;51.114;6.900;2024-01-07T07:14:37;101574.38;;;3.19
37452;BMP280;23314;51.114;6.900;2024-01-07T07:17:03;101572.19;;;3.21
37452;BMP280;23314;51.114;6.900;2024-01-07T07:19:28;101576.66;;;3.21
37452;BMP280;23314;51.114;6.900;2024-01-07T07:21:54;101593.56;;;3.19
37452;BMP280;23314;51.114;6.900;2024-01-07T07:24:19;101583.81;;;3.20
37452;BMP280;23314;51.114;6.900;2024-01-07T07:26:45;101590.19;;;3.19
37452;BMP280;23314;51.114;6.900;2024-01-07T07:29:10;101597.06;;;3.11
37452;BMP280;23314;51.114;6.900;2024-01-07T07:31:36;101597.38;;;3.10
37452;BMP280;23314;51.114;6.900;2024-01-07T07:34:03;101596.75;;;3.13
37452;BMP280;23314;51.114;6.900;2024-01-07T07:36:29;101596.75;;;3.13
37452;BMP280;23314;51.114;6.900;2024-01-07T07:38:54;101611.00;;;3.12
37452;BMP280;23314;51.114;6.900;2024-01-07T07:41:20;101612.56;;;3.13
37452;BMP280;23314;51.114;6.900;2024-01-07T07:43:45;101621.91;;;3.10
37452;BMP280;23314;51.114;6.900;2024-01-07T07:46:11;101624.19;;;3.12
37452;BMP280;23314;51.114;6.900;2024-01-07T07:48:37;101628.25;;;3.09
37452;BMP280;23314;51.114;6.900;2024-01-07T07:51:03;101619.56;;;3.09
37452;BMP280;23314;51.114;6.900;2024-01-07T07:53:28;101628.03;;;3.14
37452;BMP280;23314;51.114;6.900;2024-01-07T07:55:53;101629.94;;;3.14
37452;BMP280;23314;51.114;6.900;2024-01-07T07:58:19;101632.22;;;3.15
37452;BMP280;23314;51.114;6.900;2024-01-07T08:00:45;101634.88;;;3.15
37452;BMP280;23314;51.114;6.900;2024-01-07T08:03:10;101631.47;;;3.15
37452;BMP280;23314;51.114;6.900;2024-01-07T08:05:36;101640.13;;;3.15
37452;BMP280;23314;51.114;6.900;2024-01-07T08:08:01;101643.75;;;3.11
37452;BMP280;23314;51.114;6.900;2024-01-07T08:10:27;101639.69;;;3.13
37452;BMP280;23314;51.114;6.900;2024-01-07T08:12:54;101650.44;;;3.08
37452;BMP280;23314;51.114;6.900;2024-01-07T08:15:19;101647.81;;;3.08
37452;BMP280;23314;51.114;6.900;2024-01-07T08:17:45;101659.25;;;3.12
37452;BMP280;23314;51.114;6.900;2024-01-07T08:20:10;101660.00;;;3.13
37452;BMP280;23314;51.114;6.900;2024-01-07T08:22:36;101667.81;;;3.09
37452;BMP280;23314;51.114;6.900;2024-01-07T08:25:01;101675.72;;;3.09
37452;BMP280;23314;51.114;6.900;2024-01-07T08:27:27;101673.06;;;3.09
37452;BMP280;23314;51.114;6.900;2024-01-07T08:29:53;101687.34;;;3.08
37452;BMP280;23314;51.114;6.900;2024-01-07T08:32:18;101696.66;;;3.06
37452;BMP280;23314;51.114;6.900;2024-01-07T08:34:44;101686.75;;;3.02
37452;BMP280;23314;51.114;6.900;2024-01-07T08:37:10;101697.19;;;2.99
37452;BMP280;23314;51.114;6.900;2024-01-07T08:39:35;101695.34;;;2.99
37452;BMP280;23314;51.114;6.900;2024-01-07T08:42:01;101703.00;;;3.04
37452;BMP280;23314;51.114;6.900;2024-01-07T08:44:26;101686.00;;;3.02
37452;BMP280;23314;51.114;6.900;2024-01-07T08:46:52;101710.94;;;3.04
37452;BMP280;23314;51.114;6.900;2024-01-07T08:49:17;101712.69;;;3.00
37452;BMP280;23314;51.114;6.900;2024-01-07T08:51:42;101712.00;;;3.03
37452;BMP280;23314;51.114;6.900;2024-01-07T08:54:08;101716.66;;;3.07
37452;BMP280;23314;51.114;6.900;2024-01-07T08:56:33;101718.06;;;3.04
37452;BMP280;23314;51.114;6.900;2024-01-07T08:58:59;101724.88;;;3.05
37452;BMP280;23314;51.114;6.900;2024-01-07T09:01:24;101726.09;;;3.08
37452;BMP280;23314;51.114;6.900;2024-01-07T09:03:50;101715.25;;;3.09
37452;BMP280;23314;51.114;6.900;2024-01-07T09:06:15;101729.19;;;3.10
37452;BMP280;23314;51.114;6.900;2024-01-07T09:08:40;101728.91;;;3.11
37452;BMP280;23314;51.114;6.900;2024-01-07T09:11:06;101740.06;;;3.08
37452;BMP280;23314;51.114;6.900;2024-01-07T09:13:32;101733.25;;;3.07
37452;BMP280;23314;51.114;6.900;2024-01-07T09:15:57;101747.19;;;3.08
37452;BMP280;23314;51.114;6.900;2024-01-07T09:18:23;101735.09;;;3.07
37452;BMP280;23314;51.114;6.900;2024-01-07T09:20:48;101742.56;;;3.04
37452;BMP280;23314;51.114;6.900;2024-01-07T09:23:14;101748.28;;;3.07
37452;BMP280;23314;51.114;6.900;2024-01-07T09:25:40;101746.44;;;3.07
37452;BMP280;23314;51.114;6.900;2024-01-07T09:28:06;101749.72;;;3.04
37452;BMP280;23314;51.114;6.900;2024-01-07T09:30:32;101745.81;;;3.01
37452;BMP280;23314;51.114;6.900;2024-01-07T09:32:57;101744.63;;;2.99
37452;BMP280;23314;51.114;6.900;2024-01-07T09:35:22;101753.88;;;3.05
37452;BMP280;23314;51.114;6.900;2024-01-07T09:37:48;101750.69;;;2.99
37452;BMP280;23314;51.114;6.900;2024-01-07T09:40:17;101761.34;;;3.03
37452;BMP280;23314;51.114;6.900;2024-01-07T09:42:43;101766.53;;;2.91
37452;BMP280;23314;51.114;6.900;2024-01-07T09:45:12;101760.84;;;2.88
37452;BMP280;23314;51.114;6.900;2024-01-07T09:47:37;101761.91;;;2.87
37452;BMP280;23314;51.114;6.900;2024-01-07T09:50:07;101765.31;;;2.88
37452;BMP280;23314;51.114;6.900;2024-01-07T09:52:35;101768.06;;;2.92
37452;BMP280;23314;51.114;6.900;2024-01-07T09:55:02;101771.16;;;2.94
37452;BMP280;23314;51.114;6.900;2024-01-07T09:57:29;101771.03;;;2.90
37452;BMP280;23314;51.114;6.900;2024-01-07T09:59:54;101767.94;;;2.88
37452;BMP280;23314;51.114;6.900;2024-01-07T10:02:20;101755.09;;;2.86
37452;BMP280;23314;51.114;6.900;2024-01-07T10:04:48;101776.66;;;2.80
37452;BMP280;23314;51.114;6.900;2024-01-07T10:07:14;101774.81;;;2.80
37452;BMP280;23314;51.114;6.900;2024-01-07T10:09:40;101772.94;;;2.81
37452;BMP280;23314;51.114;6.900;2024-01-07T10:12:07;101774.69;;;2.77
37452;BMP280;23314;51.114;6.900;2024-01-07T10:14:33;101781.16;;;2.79
37452;BMP280;23314;51.114;6.900;2024-01-07T10:16:59;101779.28;;;2.80
37452;BMP280;23314;51.114;6.900;2024-01-07T10:19:24;101779.13;;;2.85
37452;BMP280;23314;51.114;6.900;2024-01-07T10:22:04;101783.44;;;2.89
37452;BMP280;23314;51.114;6.900;2024-01-07T10:24:37;101788.22;;;2.96
37452;BMP280;23314;51.114;6.900;2024-01-07T10:27:04;101793.03;;;2.94
37452;BMP280;23314;51.114;6.900;2024-01-07T10:29:30;101802.81;;;2.94
37452;BMP280;23314;51.114;6.900;2024-01-07T10:32:00;101787.03;;;2.85
37452;BMP280;23314;51.114;6.900;2024-01-07T10:34:34;101804.25;;;2.82
37452;BMP280;23314;51.114;6.900;2024-01-07T10:37:01;101792.47;;;2.80
37452;BMP280;23314;51.114;6.900;2024-01-07T10:39:29;101794.47;;;2.83
37452;BMP280;23314;51.114;6.900;2024-01-07T10:41:55;101793.97;;;2.89
37452;BMP280;23314;51.114;6.900;2024-01-07T10:44:25;101793.50;;;2.96
37452;BMP280;23314;51.114;6.900;2024-01-07T10:46:55;101805.69;;;3.01
37452;BMP280;23314;51.114;6.900;2024-01-07T10:49:22;101810.97;;;3.01
37452;BMP280;23314;51.114;6.900;2024-01-07T10:52:07;101801.00;;;3.07
37452;BMP280;23314;51.114;6.900;2024-01-07T10:54:34;101804.06;;;3.17
37452;BMP280;23314;51.114;6.900;2024-01-07T10:57:21;101809.97;;;3.14
37452;BMP280;23314;51.114;6.900;2024-01-07T10:59:50;101804.06;;;3.17
37452;BMP280;23314;51.114;6.900;2024-01-07T11:02:16;101793.97;;;3.19
37452;BMP280;23314;51.114;6.900;2024-01-07T11:07:40;101808.06;;;3.24
37452;BMP280;23314;51.114;6.900;2024-01-07T11:10:15;101811.72;;;3.31
37452;BMP280;23314;51.114;6.900;2024-01-07T11:12:43;101816.78;;;3.24
37452;BMP280;23314;51.114;6.900;2024-01-07T11:15:08;101815.06;;;3.19
37452;BMP280;23314;51.114;6.900;2024-01-07T11:20:05;101821.97;;;3.03
37452;BMP280;23314;51.114;6.900;2024-01-07T11:22:32;101810.22;;;3.00
37452;BMP280;23314;51.114;6.900;2024-01-07T11:24:59;101818.78;;;2.97
37452;BMP280;23314;51.114;6.900;2024-01-07T11:27:28;101812.84;;;3.00
37452;BMP280;23314;51.114;6.900;2024-01-07T11:32:29;101822.50;;;2.96
37452;BMP280;23314;51.114;6.900;2024-01-07T11:34:55;101818.94;;;2.92
37452;BMP280;23314;51.114;6.900;2024-01-07T11:37:22;101839.25;;;2.92
37452;BMP280;23314;51.114;6.900;2024-01-07T11:39:50;101826.09;;;2.83
37452;BMP280;23314;51.114;6.900;2024-01-07T11:42:16;101837.91;;;2.77
37452;BMP280;23314;51.114;6.900;2024-01-07T11:44:52;101843.94;;;2.77
37452;BMP280;23314;51.114;6.900;2024-01-07T11:47:19;101839.16;;;2.70
37452;BMP280;23314;51.114;6.900;2024-01-07T11:49:46;101841.00;;;2.70
37452;BMP280;23314;51.114;6.900;2024-01-07T11:52:12;101845.53;;;2.69
37452;BMP280;23314;51.114;6.900;2024-01-07T11:54:38;101849.84;;;2.74
37452;BMP280;23314;51.114;6.900;2024-01-07T11:57:05;101859.66;;;2.65
37452;BMP280;23314;51.114;6.900;2024-01-07T11:59:30;101850.84;;;2.61
37452;BMP280;23314;51.114;6.900;2024-01-07T12:01:55;101849.13;;;2.65
37452;BMP280;23314;51.114;6.900;2024-01-07T12:04:21;101845.09;;;2.67
37452;BMP280;23314;51.114;6.900;2024-01-07T12:06:48;101848.16;;;2.69
37452;BMP280;23314;51.114;6.900;2024-01-07T12:09:13;101843.03;;;2.73
37452;BMP280;23314;51.114;6.900;2024-01-07T12:11:40;101841.16;;;2.82
37452;BMP280;23314;51.114;6.900;2024-01-07T12:14:07;101840.66;;;2.89
37452;BMP280;23314;51.114;6.900;2024-01-07T12:16:33;101845.13;;;2.97
37452;BMP280;23314;51.114;6.900;2024-01-07T12:18:59;101849.31;;;2.98
37452;BMP280;23314;51.114;6.900;2024-01-07T12:21:24;101856.88;;;3.00
37452;BMP280;23314;51.114;6.900;2024-01-07T12:23:52;101867.56;;;3.03
37452;BMP280;23314;51.114;6.900;2024-01-07T12:26:17;101852.72;;;2.99
37452;BMP280;23314;51.114;6.900;2024-01-07T12:28:44;101862.16;;;3.00
37452;BMP280;23314;51.114;6.900;2024-01-07T12:31:10;101856.75;;;2.96
37452;BMP280;23314;51.114;6.900;2024-01-07T12:33:38;101864.97;;;2.95
37452;BMP280;23314;51.114;6.900;2024-01-07T12:36:06;101873.53;;;2.83
37452;BMP280;23314;51.114;6.900;2024-01-07T12:38:32;101864.25;;;2.77
37452;BMP280;23314;51.114;6.900;2024-01-07T12:40:58;101858.25;;;2.67
37452;BMP280;23314;51.114;6.900;2024-01-07T12:43:23;101871.59;;;2.62
37452;BMP280;23314;51.114;6.900;2024-01-07T12:45:49;101878.25;;;2.60
37452;BMP280;23314;51.114;6.900;2024-01-07T12:48:15;101880.13;;;2.59
37452;BMP280;23314;51.114;6.900;2024-01-07T12:50:40;101873.13;;;2.63
37452;BMP280;23314;51.114;6.900;2024-01-07T12:53:06;101886.31;;;2.63
37452;BMP280;23314;51.114;6.900;2024-01-07T12:55:32;101894.53;;;2.62
37452;BMP280;23314;51.114;6.900;2024-01-07T12:57:57;101899.97;;;2.56
37452;BMP280;23314;51.114;6.900;2024-01-07T13:00:24;101903.22;;;2.53
37452;BMP280;23314;51.114;6.900;2024-01-07T13:02:50;101901.03;;;2.55
37452;BMP280;23314;51.114;6.900;2024-01-07T13:05:16;101906.31;;;2.55
37452;BMP280;23314;51.114;6.900;2024-01-07T13:07:42;101908.97;;;2.47
37452;BMP280;23314;51.114;6.900;2024-01-07T13:10:08;101907.56;;;2.49
37452;BMP280;23314;51.114;6.900;2024-01-07T13:12:35;101915.16;;;2.51
37452;BMP280;23314;51.114;6.900;2024-01-07T13:15:00;101893.91;;;2.38
37452;BMP280;23314;51.114;6.900;2024-01-07T13:17:26;101919.50;;;2.29
37452;BMP280;23314;51.114;6.900;2024-01-07T13:19:51;101932.50;;;2.17
37452;BMP280;23314;51.114;6.900;2024-01-07T13:22:17;101924.00;;;2.20
37452;BMP280;23314;51.114;6.900;2024-01-07T13:24:42;101937.78;;;2.17
37452;BMP280;23314;51.114;6.900;2024-01-07T13:27:08;101930.81;;;2.12
37452;BMP280;23314;51.114;6.900;2024-01-07T13:29:33;101922.56;;;2.05
37452;BMP280;23314;51.114;6.900;2024-01-07T13:31:59;101937.28;;;2.06
37452;BMP280;23314;51.114;6.900;2024-01-07T13:34:25;101943.28;;;1.97
37452;BMP280;23314;51.114;6.900;2024-01-07T13:36:50;101947.00;;;1.96
37452;BMP280;23314;51.114;6.900;2024-01-07T13:39:17;101942.06;;;1.95
37452;BMP280;23314;51.114;6.900;2024-01-07T13:41:42;101946.25;;;1.96
37452;BMP280;23314;51.114;6.900;2024-01-07T13:44:09;101942.34;;;1.93
37452;BMP280;23314;51.114;6.900;2024-01-07T13:46:46;101943.16;;;1.94
37452;BMP280;23314;51.114;6.900;2024-01-07T13:49:15;101950.56;;;1.92
37452;BMP280;23314;51.114;6.900;2024-01-07T13:51:44;101952.75;;;1.90
37452;BMP280;23314;51.114;6.900;2024-01-07T13:54:09;101952.59;;;1.86
37452;BMP280;23314;51.114;6.900;2024-01-07T13:56:38;101950.25;;;1.85
37452;BMP280;23314;51.114;6.900;2024-01-07T13:59:07;101956.91;;;1.82
37452;BMP280;23314;51.114;6.900;2024-01-07T14:01:33;101965.28;;;1.84
37452;BMP280;23314;51.114;6.900;2024-01-07T14:03:59;101954.72;;;1.75
37452;BMP280;23314;51.114;6.900;2024-01-07T14:06:24;101981.03;;;1.75
37452;BMP280;23314;51.114;6.900;2024-01-07T14:08:50;101976.19;;;1.69
37452;BMP280;23314;51.114;6.900;2024-01-07T14:11:17;101969.41;;;1.68